createdAt,value
2024-03-16T00:01:22.605Z,2.00
2024-03-16T00:03:49.922Z,2.92
2024-03-16T00:06:17.230Z,2.75
2024-03-16T00:08:44.485Z,2.50
2024-03-16T00:11:11.728Z,2.70
2024-03-16T00:13:38.969Z,2.10
2024-03-16T00:16:06.456Z,2.10
2024-03-16T00:18:33.825Z,2.30
2024-03-16T00:21:01.093Z,3.22
2024-03-16T00:23:28.307Z,2.22
2024-03-16T00:25:55.641Z,2.63
2024-03-16T00:28:22.886Z,2.55
2024-03-16T00:30:50.147Z,2.42
2024-03-16T00:33:17.407Z,2.40
2024-03-16T00:35:44.662Z,2.83
2024-03-16T00:38:11.946Z,2.15
2024-03-16T00:40:39.235Z,1.65
2024-03-16T00:43:06.568Z,2.50
2024-03-16T00:45:33.974Z,1.90
2024-03-16T00:48:01.303Z,2.13
2024-03-16T00:50:28.595Z,2.33
2024-03-16T00:52:55.845Z,2.67
2024-03-16T00:55:23.087Z,1.95
2024-03-16T00:57:50.416Z,2.28
2024-03-16T01:00:17.682Z,2.72
2024-03-16T01:02:44.928Z,3.03
2024-03-16T01:05:12.169Z,2.90
2024-03-16T01:07:39.442Z,2.53
2024-03-16T01:10:07.160Z,2.55
2024-03-16T01:12:34.655Z,2.83
2024-03-16T01:15:02.052Z,2.25
2024-03-16T01:17:29.357Z,3.15
2024-03-16T01:19:56.888Z,2.65
2024-03-16T01:22:24.166Z,2.03
2024-03-16T01:24:51.465Z,3.08
2024-03-16T01:27:18.743Z,2.47
2024-03-16T01:29:45.957Z,1.98
2024-03-16T01:32:13.209Z,2.58
2024-03-16T01:34:40.437Z,1.70
2024-03-16T01:37:07.745Z,1.52
2024-03-16T01:39:35.080Z,1.73
2024-03-16T01:42:02.367Z,1.42
2024-03-16T01:44:29.635Z,1.50
2024-03-16T01:46:56.888Z,1.38
2024-03-16T01:49:24.151Z,1.50
2024-03-16T01:51:51.439Z,1.63
2024-03-16T01:54:18.935Z,1.67
2024-03-16T01:56:46.184Z,1.75
2024-03-16T01:59:13.474Z,1.45
2024-03-16T02:01:40.796Z,2.10
2024-03-16T02:04:08.284Z,2.28
2024-03-16T02:06:35.585Z,1.80
2024-03-16T02:09:02.824Z,1.83
2024-03-16T02:11:30.115Z,1.98
2024-03-16T02:13:57.410Z,2.45
2024-03-16T02:16:24.684Z,2.72
2024-03-16T02:18:52.009Z,2.55
2024-03-16T02:21:19.249Z,2.60
2024-03-16T02:23:46.501Z,2.47
2024-03-16T02:26:13.886Z,2.60
2024-03-16T02:28:41.196Z,2.72
2024-03-16T02:31:08.522Z,2.55
2024-03-16T02:33:35.821Z,2.55
2024-03-16T02:36:03.095Z,3.38
2024-03-16T02:38:30.325Z,2.47
2024-03-16T02:40:57.570Z,2.95
2024-03-16T02:43:24.995Z,3.30
2024-03-16T02:45:52.280Z,3.30
2024-03-16T02:48:19.675Z,3.05
2024-03-16T02:50:46.982Z,2.53
2024-03-16T02:53:14.233Z,3.83
2024-03-16T02:55:41.499Z,2.97
2024-03-16T02:58:08.815Z,3.33
2024-03-16T03:00:36.160Z,3.85
2024-03-16T03:03:03.387Z,4.82
2024-03-16T03:05:30.643Z,3.95
2024-03-16T03:07:57.880Z,4.72
2024-03-16T03:10:25.142Z,4.38
2024-03-16T03:12:52.450Z,4.03
2024-03-16T03:15:19.697Z,4.80
2024-03-16T03:17:46.970Z,5.20
2024-03-16T03:20:14.213Z,4.65
2024-03-16T03:22:41.473Z,4.78
2024-03-16T03:25:08.837Z,3.63
2024-03-16T03:27:36.278Z,4.20
2024-03-16T03:30:04.070Z,4.28
2024-03-16T03:32:31.343Z,4.18
2024-03-16T03:34:58.586Z,4.40
2024-03-16T03:37:25.835Z,4.20
2024-03-16T03:39:53.176Z,4.35
2024-03-16T03:42:20.586Z,4.30
2024-03-16T03:44:47.803Z,4.53
2024-03-16T03:47:15.044Z,5.38
2024-03-16T03:49:42.263Z,5.05
2024-03-16T03:52:09.512Z,4.72
2024-03-16T03:54:36.807Z,4.45
2024-03-16T03:57:04.248Z,4.43
2024-03-16T03:59:31.480Z,4.47
2024-03-16T04:01:58.798Z,3.75
2024-03-16T04:04:26.080Z,4.03
2024-03-16T04:06:53.418Z,3.60
2024-03-16T04:09:20.696Z,3.88
2024-03-16T04:11:47.917Z,3.88
2024-03-16T04:14:15.185Z,4.40
2024-03-16T04:16:42.431Z,4.38
2024-03-16T04:19:09.834Z,4.10
2024-03-16T04:21:37.189Z,4.47
2024-03-16T04:24:04.597Z,4.72
2024-03-16T04:26:31.816Z,4.10
2024-03-16T04:28:59.094Z,4.85
2024-03-16T04:31:26.380Z,4.28
2024-03-16T04:33:53.725Z,4.40
2024-03-16T04:36:21.003Z,4.53
2024-03-16T04:38:48.250Z,4.30
2024-03-16T04:41:15.468Z,4.50
2024-03-16T04:43:42.777Z,5.55
2024-03-16T04:46:10.108Z,6.15
2024-03-16T04:48:37.506Z,5.45
2024-03-16T04:51:04.869Z,4.97
2024-03-16T04:53:32.137Z,6.68
2024-03-16T04:55:59.444Z,5.35
2024-03-16T04:58:26.698Z,5.85
2024-03-16T05:00:54.059Z,5.68
2024-03-16T05:03:21.316Z,4.80
2024-03-16T05:05:48.561Z,6.47
2024-03-16T05:08:15.821Z,6.18
2024-03-16T05:10:43.077Z,6.57
2024-03-16T05:13:10.378Z,6.32
2024-03-16T05:15:37.737Z,7.90
2024-03-16T05:18:05.171Z,7.07
2024-03-16T05:20:32.446Z,6.28
2024-03-16T05:22:59.724Z,6.70
2024-03-16T05:25:26.975Z,6.55
2024-03-16T05:27:54.226Z,6.43
2024-03-16T05:30:21.564Z,7.15
2024-03-16T05:32:48.912Z,6.38
2024-03-16T05:35:16.176Z,6.45
2024-03-16T05:37:43.397Z,7.32
2024-03-16T05:40:10.948Z,6.93
2024-03-16T05:42:38.204Z,7.57
2024-03-16T05:45:05.589Z,6.90
2024-03-16T05:47:32.865Z,7.32
2024-03-16T05:50:00.216Z,7.38
2024-03-16T05:52:27.537Z,7.80
2024-03-16T05:54:54.818Z,7.88
2024-03-16T05:57:22.115Z,7.93
2024-03-16T05:59:49.371Z,7.63
2024-03-16T06:02:16.618Z,7.57
2024-03-16T06:04:43.841Z,8.30
2024-03-16T06:07:11.182Z,9.55
2024-03-16T06:09:38.460Z,7.43
2024-03-16T06:12:05.754Z,7.88
2024-03-16T06:14:32.985Z,8.20
2024-03-16T06:17:00.236Z,7.30
2024-03-16T06:19:27.467Z,7.45
2024-03-16T06:21:54.716Z,7.85
2024-03-16T06:24:21.968Z,7.57
2024-03-16T06:26:49.219Z,7.38
2024-03-16T06:29:16.438Z,6.90
2024-03-16T06:31:43.668Z,6.65
2024-03-16T06:34:11.012Z,7.68
2024-03-16T06:36:38.396Z,7.72
2024-03-16T06:39:05.685Z,7.07
2024-03-16T06:41:32.960Z,7.78
2024-03-16T06:44:00.219Z,6.30
2024-03-16T06:46:27.439Z,7.30
2024-03-16T06:48:54.734Z,6.85
2024-03-16T06:51:22.092Z,6.60
2024-03-16T06:53:49.365Z,7.55
2024-03-16T06:56:16.598Z,6.45
2024-03-16T06:58:43.963Z,6.38
2024-03-16T07:01:11.296Z,7.07
2024-03-16T07:03:38.670Z,8.40
2024-03-16T07:06:06.056Z,6.70
2024-03-16T07:08:33.299Z,6.43
2024-03-16T07:11:00.578Z,6.05
2024-03-16T07:13:28.014Z,6.85
2024-03-16T07:15:55.318Z,6.00
2024-03-16T07:18:22.606Z,6.63
2024-03-16T07:20:49.882Z,6.25
2024-03-16T07:23:17.117Z,7.65
2024-03-16T07:25:44.367Z,8.00
2024-03-16T07:28:11.726Z,8.77
2024-03-16T07:30:39.163Z,8.63
2024-03-16T07:33:06.436Z,9.07
2024-03-16T07:35:33.708Z,8.95
2024-03-16T07:38:00.926Z,9.70
2024-03-16T07:40:28.194Z,9.13
2024-03-16T07:42:55.491Z,7.10
2024-03-16T07:45:22.763Z,5.28
2024-03-16T07:47:49.997Z,5.60
2024-03-16T07:50:17.268Z,5.22
2024-03-16T07:52:44.548Z,5.25
2024-03-16T07:55:11.871Z,4.35
2024-03-16T07:57:39.166Z,4.72
2024-03-16T08:00:06.798Z,3.78
2024-03-16T08:02:34.058Z,3.65
2024-03-16T08:05:01.328Z,3.00
2024-03-16T08:07:28.580Z,2.15
2024-03-16T08:09:55.903Z,1.55
2024-03-16T08:12:23.177Z,1.33
2024-03-16T08:14:50.425Z,1.30
2024-03-16T08:17:17.722Z,1.40
2024-03-16T08:19:44.942Z,1.52
2024-03-16T08:22:12.299Z,1.60
2024-03-16T08:24:39.611Z,1.92
2024-03-16T08:27:06.959Z,1.38
2024-03-16T08:29:34.241Z,1.85
2024-03-16T08:32:01.511Z,2.47
2024-03-16T08:34:28.806Z,1.73
2024-03-16T08:36:56.355Z,1.90
2024-03-16T08:39:23.597Z,2.33
2024-03-16T08:41:51.043Z,1.65
2024-03-16T08:44:18.329Z,2.40
2024-03-16T08:46:45.668Z,2.55
2024-03-16T08:49:13.026Z,2.45
2024-03-16T08:51:40.336Z,2.30
2024-03-16T08:54:07.573Z,2.90
2024-03-16T08:56:35.162Z,3.83
2024-03-16T08:59:02.409Z,2.92
2024-03-16T09:01:29.860Z,4.05
2024-03-16T09:03:57.287Z,3.97
2024-03-16T09:06:24.531Z,4.95
2024-03-16T09:08:51.803Z,4.43
2024-03-16T09:11:19.095Z,5.20
2024-03-16T09:13:46.394Z,4.65
2024-03-16T09:16:13.912Z,2.60
2024-03-16T09:18:41.273Z,1.77
2024-03-16T09:21:08.524Z,2.08
2024-03-16T09:23:35.941Z,1.50
2024-03-16T09:26:03.262Z,1.50
2024-03-16T09:28:30.517Z,1.40
2024-03-16T09:30:57.747Z,1.60
2024-03-16T09:33:25.045Z,1.45
2024-03-16T09:35:53.977Z,2.15
2024-03-16T09:38:21.314Z,1.67
2024-03-16T09:40:53.249Z,2.25
